sensor_id;sensor_type;location;lat;lon;timestamp;pressure;altitude;pressure_sealevel;temperature;humidity
18697;BME280;22617;43.690;27.956;2023-05-24T00:02:31;98582.81;;;14.61;81.30
18697;BME280;22617;43.690;27.956;2023-05-24T00:07:35;98591.72;;;14.55;81.59
18697;BME280;22617;43.690;27.956;2023-05-24T00:12:38;98583.75;;;14.58;80.84
18697;BME280;22617;43.690;27.956;2023-05-24T00:17:44;98579.38;;;14.59;80.46
18697;BME280;22617;43.690;27.956;2023-05-24T00:22:48;98583.81;;;14.57;80.28
18697;BME280;22617;43.690;27.956;2023-05-24T00:27:52;98579.91;;;14.39;80.90
18697;BME280;22617;43.690;27.956;2023-05-24T00:32:57;98581.59;;;14.42;80.86
18697;BME280;22617;43.690;27.956;2023-05-24T00:38:01;98593.84;;;14.41;80.56
18697;BME280;22617;43.690;27.956;2023-05-24T00:43:05;98580.94;;;14.32;80.21
18697;BME280;22617;43.690;27.956;2023-05-24T00:48:10;98582.72;;;14.30;79.94
18697;BME280;22617;43.690;27.956;2023-05-24T00:53:14;98581.91;;;14.28;80.86
18697;BME280;22617;43.690;27.956;2023-05-24T00:58:18;98595.25;;;14.19;80.09
18697;BME280;22617;43.690;27.956;2023-05-24T01:03:23;98581.56;;;14.08;79.86
18697;BME280;22617;43.690;27.956;2023-05-24T01:08:41;98581.78;;;13.98;79.72
18697;BME280;22617;43.690;27.956;2023-05-24T01:13:53;98573.31;;;13.87;80.50
18697;BME280;22617;43.690;27.956;2023-05-24T01:19:10;98570.88;;;13.80;80.20
18697;BME280;22617;43.690;27.956;2023-05-24T01:24:29;98566.75;;;13.70;81.38
18697;BME280;22617;43.690;27.956;2023-05-24T01:29:36;98555.88;;;13.86;81.08
18697;BME280;22617;43.690;27.956;2023-05-24T01:34:40;98555.59;;;13.98;79.82
18697;BME280;22617;43.690;27.956;2023-05-24T01:39:44;98564.66;;;13.85;79.22
18697;BME280;22617;43.690;27.956;2023-05-24T01:44:56;98567.41;;;13.79;79.12
18697;BME280;22617;43.690;27.956;2023-05-24T01:50:06;98568.59;;;13.66;79.37
18697;BME280;22617;43.690;27.956;2023-05-24T01:55:16;98570.63;;;13.53;79.47
18697;BME280;22617;43.690;27.956;2023-05-24T02:00:21;98568.97;;;13.49;79.46
18697;BME280;22617;43.690;27.956;2023-05-24T02:05:27;98570.72;;;13.49;79.72
18697;BME280;22617;43.690;27.956;2023-05-24T02:10:31;98563.66;;;13.52;80.00
18697;BME280;22617;43.690;27.956;2023-05-24T02:15:36;98563.72;;;13.51;79.59
18697;BME280;22617;43.690;27.956;2023-05-24T02:20:39;98572.97;;;13.27;79.42
18697;BME280;22617;43.690;27.956;2023-05-24T02:25:44;98571.16;;;13.29;79.63
18697;BME280;22617;43.690;27.956;2023-05-24T02:30:49;98575.88;;;13.14;79.44
18697;BME280;22617;43.690;27.956;2023-05-24T02:35:52;98589.09;;;13.06;81.02
18697;BME280;22617;43.690;27.956;2023-05-24T02:40:56;98588.19;;;13.08;81.14
18697;BME280;22617;43.690;27.956;2023-05-24T02:46:01;98596.06;;;13.05;81.65
18697;BME280;22617;43.690;27.956;2023-05-24T02:51:06;98588.09;;;13.13;82.75
18697;BME280;22617;43.690;27.956;2023-05-24T02:56:09;98590.84;;;13.05;81.90
18697;BME280;22617;43.690;27.956;2023-05-24T03:01:16;98599.38;;;13.15;81.92
18697;BME280;22617;43.690;27.956;2023-05-24T03:06:21;98596.25;;;13.39;81.85
18697;BME280;22617;43.690;27.956;2023-05-24T03:11:25;98600.41;;;13.48;82.28
18697;BME280;22617;43.690;27.956;2023-05-24T03:16:32;98603.56;;;13.64;82.31
18697;BME280;22617;43.690;27.956;2023-05-24T03:21:38;98602.13;;;13.87;81.82
18697;BME280;22617;43.690;27.956;2023-05-24T03:26:41;98601.25;;;13.88;81.75
18697;BME280;22617;43.690;27.956;2023-05-24T03:31:46;98595.50;;;14.10;82.03
18697;BME280;22617;43.690;27.956;2023-05-24T03:36:50;98603.63;;;14.33;82.79
18697;BME280;22617;43.690;27.956;2023-05-24T03:41:53;98610.78;;;14.62;82.61
18697;BME280;22617;43.690;27.956;2023-05-24T03:46:59;98604.06;;;14.82;83.83
18697;BME280;22617;43.690;27.956;2023-05-24T03:52:02;98610.53;;;15.02;86.90
18697;BME280;22617;43.690;27.956;2023-05-24T03:57:06;98619.53;;;15.24;88.11
18697;BME280;22617;43.690;27.956;2023-05-24T04:02:11;98618.09;;;15.43;88.90
18697;BME280;22617;43.690;27.956;2023-05-24T04:07:15;98631.31;;;15.69;90.01
18697;BME280;22617;43.690;27.956;2023-05-24T04:12:19;98620.88;;;15.96;91.11
18697;BME280;22617;43.690;27.956;2023-05-24T04:17:24;98620.66;;;16.02;90.79
18697;BME280;22617;43.690;27.956;2023-05-24T04:22:28;98621.31;;;16.10;89.89
18697;BME280;22617;43.690;27.956;2023-05-24T04:27:32;98615.75;;;16.19;89.94
18697;BME280;22617;43.690;27.956;2023-05-24T04:32:38;98625.25;;;16.23;89.04
18697;BME280;22617;43.690;27.956;2023-05-24T04:37:42;98629.41;;;16.30;88.39
18697;BME280;22617;43.690;27.956;2023-05-24T04:42:46;98626.75;;;16.56;87.92
18697;BME280;22617;43.690;27.956;2023-05-24T04:47:51;98631.69;;;16.92;86.68
18697;BME280;22617;43.690;27.956;2023-05-24T04:52:54;98624.59;;;17.17;85.00
18697;BME280;22617;43.690;27.956;2023-05-24T04:57:58;98628.31;;;17.60;83.83
18697;BME280;22617;43.690;27.956;2023-05-24T05:03:03;98631.66;;;17.86;82.76
18697;BME280;22617;43.690;27.956;2023-05-24T05:08:08;98633.38;;;18.09;81.06
18697;BME280;22617;43.690;27.956;2023-05-24T05:13:11;98634.44;;;18.47;80.09
18697;BME280;22617;43.690;27.956;2023-05-24T05:18:16;98646.06;;;18.85;79.47
18697;BME280;22617;43.690;27.956;2023-05-24T05:23:20;98642.53;;;19.05;75.09
18697;BME280;22617;43.690;27.956;2023-05-24T05:28:23;98636.97;;;19.31;75.85
18697;BME280;22617;43.690;27.956;2023-05-24T05:33:29;98647.34;;;19.56;74.10
18697;BME280;22617;43.690;27.956;2023-05-24T05:38:33;98647.97;;;19.80;73.59
18697;BME280;22617;43.690;27.956;2023-05-24T05:43:37;98647.59;;;19.87;70.24
18697;BME280;22617;43.690;27.956;2023-05-24T05:48:43;98655.81;;;19.81;69.81
18697;BME280;22617;43.690;27.956;2023-05-24T05:53:47;98653.91;;;20.03;70.85
18697;BME280;22617;43.690;27.956;2023-05-24T05:58:51;98661.69;;;19.88;72.34
18697;BME280;22617;43.690;27.956;2023-05-24T06:03:55;98657.81;;;20.14;70.69
18697;BME280;22617;43.690;27.956;2023-05-24T06:08:59;98669.03;;;20.37;70.10
18697;BME280;22617;43.690;27.956;2023-05-24T06:14:02;98660.66;;;20.64;70.05
18697;BME280;22617;43.690;27.956;2023-05-24T06:19:07;98667.53;;;20.85;69.29
18697;BME280;22617;43.690;27.956;2023-05-24T06:24:11;98664.22;;;20.97;68.51
18697;BME280;22617;43.690;27.956;2023-05-24T06:29:15;98664.66;;;21.24;66.18
18697;BME280;22617;43.690;27.956;2023-05-24T06:34:22;98665.28;;;21.45;67.41
18697;BME280;22617;43.690;27.956;2023-05-24T06:39:26;98665.97;;;21.81;67.04
18697;BME280;22617;43.690;27.956;2023-05-24T06:44:29;98665.06;;;21.98;65.17
18697;BME280;22617;43.690;27.956;2023-05-24T06:49:37;98660.06;;;22.39;64.49
18697;BME280;22617;43.690;27.956;2023-05-24T06:54:40;98663.19;;;22.61;63.24
18697;BME280;22617;43.690;27.956;2023-05-24T06:59:44;98659.28;;;22.52;62.66
18697;BME280;22617;43.690;27.956;2023-05-24T07:04:49;98664.31;;;22.73;62.98
18697;BME280;22617;43.690;27.956;2023-05-24T07:09:53;98660.53;;;23.07;62.19
18697;BME280;22617;43.690;27.956;2023-05-24T07:14:57;98661.00;;;23.13;61.68
18697;BME280;22617;43.690;27.956;2023-05-24T07:20:03;98663.81;;;22.50;61.37
18697;BME280;22617;43.690;27.956;2023-05-24T07:25:11;98667.19;;;22.38;62.15
18697;BME280;22617;43.690;27.956;2023-05-24T07:30:15;98664.63;;;22.21;61.69
18697;BME280;22617;43.690;27.956;2023-05-24T07:35:34;98671.22;;;22.14;61.62
18697;BME280;22617;43.690;27.956;2023-05-24T07:40:39;98674.63;;;22.16;62.26
18697;BME280;22617;43.690;27.956;2023-05-24T07:45:43;98670.59;;;22.72;61.40
18697;BME280;22617;43.690;27.956;2023-05-24T07:50:50;98680.00;;;22.61;59.71
18697;BME280;22617;43.690;27.956;2023-05-24T07:55:53;98674.91;;;22.27;60.54
18697;BME280;22617;43.690;27.956;2023-05-24T08:00:57;98683.91;;;22.86;60.04
18697;BME280;22617;43.690;27.956;2023-05-24T08:06:03;98685.56;;;23.75;56.75
18697;BME280;22617;43.690;27.956;2023-05-24T08:11:07;98678.03;;;24.24;55.94
18697;BME280;22617;43.690;27.956;2023-05-24T08:16:10;98687.81;;;24.77;54.82
18697;BME280;22617;43.690;27.956;2023-05-24T08:21:15;98677.91;;;25.18;54.48
18697;BME280;22617;43.690;27.956;2023-05-24T08:26:19;98684.75;;;25.35;53.82
18697;BME280;22617;43.690;27.956;2023-05-24T08:31:23;98688.78;;;25.03;54.02
18697;BME280;22617;43.690;27.956;2023-05-24T08:36:29;98681.81;;;25.65;53.62
18697;BME280;22617;43.690;27.956;2023-05-24T08:41:34;98686.19;;;26.15;53.37
18697;BME280;22617;43.690;27.956;2023-05-24T08:46:38;98669.31;;;26.99;53.92
18697;BME280;22617;43.690;27.956;2023-05-24T08:51:44;98675.53;;;27.10;53.26
18697;BME280;22617;43.690;27.956;2023-05-24T08:56:48;98668.38;;;27.22;51.71
18697;BME280;22617;43.690;27.956;2023-05-24T09:01:53;98674.88;;;27.42;50.00
18697;BME280;22617;43.690;27.956;2023-05-24T09:06:58;98668.47;;;27.55;50.70
18697;BME280;22617;43.690;27.956;2023-05-24T09:12:04;98682.97;;;27.29;50.01
18697;BME280;22617;43.690;27.956;2023-05-24T09:17:09;98675.75;;;27.07;50.77
18697;BME280;22617;43.690;27.956;2023-05-24T09:22:18;98677.28;;;27.45;48.70
18697;BME280;22617;43.690;27.956;2023-05-24T09:27:24;98671.53;;;27.62;48.67
18697;BME280;22617;43.690;27.956;2023-05-24T09:32:29;98672.84;;;28.23;47.68
18697;BME280;22617;43.690;27.956;2023-05-24T09:37:35;98664.59;;;27.70;46.34
18697;BME280;22617;43.690;27.956;2023-05-24T09:42:40;98663.78;;;27.24;48.14
18697;BME280;22617;43.690;27.956;2023-05-24T09:47:43;98658.13;;;27.95;47.83
18697;BME280;22617;43.690;27.956;2023-05-24T09:52:50;98644.03;;;28.79;46.03
18697;BME280;22617;43.690;27.956;2023-05-24T09:58:01;98645.81;;;28.15;46.25
18697;BME280;22617;43.690;27.956;2023-05-24T10:03:06;98643.75;;;29.14;46.71
18697;BME280;22617;43.690;27.956;2023-05-24T10:08:14;98654.81;;;27.58;47.51
18697;BME280;22617;43.690;27.956;2023-05-24T10:13:20;98644.09;;;28.03;48.76
18697;BME280;22617;43.690;27.956;2023-05-24T10:18:25;98642.13;;;28.59;48.10
18697;BME280;22617;43.690;27.956;2023-05-24T10:23:30;98649.72;;;28.00;46.93
18697;BME280;22617;43.690;27.956;2023-05-24T10:28:37;98650.63;;;27.32;48.54
18697;BME280;22617;43.690;27.956;2023-05-24T10:33:44;98650.88;;;26.35;50.30
18697;BME280;22617;43.690;27.956;2023-05-24T10:38:51;98657.84;;;25.38;54.16
18697;BME280;22617;43.690;27.956;2023-05-24T10:43:56;98648.75;;;24.90;55.49
18697;BME280;22617;43.690;27.956;2023-05-24T10:49:12;98662.53;;;24.16;57.54
18697;BME280;22617;43.690;27.956;2023-05-24T10:54:18;98663.28;;;24.04;56.45
18697;BME280;22617;43.690;27.956;2023-05-24T10:59:33;98669.59;;;23.75;60.43
18697;BME280;22617;43.690;27.956;2023-05-24T11:04:39;98657.94;;;23.05;63.54
18697;BME280;22617;43.690;27.956;2023-05-24T11:09:47;98655.25;;;22.91;65.05
18697;BME280;22617;43.690;27.956;2023-05-24T11:14:54;98648.56;;;23.28;63.56
18697;BME280;22617;43.690;27.956;2023-05-24T11:19:58;98659.94;;;23.01;64.13
18697;BME280;22617;43.690;27.956;2023-05-24T11:25:08;98659.63;;;22.46;63.91
18697;BME280;22617;43.690;27.956;2023-05-24T11:30:14;98660.16;;;22.22;64.31
18697;BME280;22617;43.690;27.956;2023-05-24T11:35:18;98669.75;;;24.00;62.26
18697;BME280;22617;43.690;27.956;2023-05-24T11:40:25;98675.44;;;24.76;59.97
18697;BME280;22617;43.690;27.956;2023-05-24T11:45:29;98682.69;;;24.06;60.12
18697;BME280;22617;43.690;27.956;2023-05-24T11:50:37;98664.97;;;23.64;62.06
18697;BME280;22617;43.690;27.956;2023-05-24T11:55:53;98666.38;;;23.56;61.05
18697;BME280;22617;43.690;27.956;2023-05-24T12:00:56;98661.31;;;23.37;61.12
18697;BME280;22617;43.690;27.956;2023-05-24T12:06:00;98663.88;;;22.80;62.67
18697;BME280;22617;43.690;27.956;2023-05-24T12:11:06;98670.19;;;22.32;62.66
18697;BME280;22617;43.690;27.956;2023-05-24T12:16:10;98676.34;;;22.17;65.09
18697;BME280;22617;43.690;27.956;2023-05-24T12:21:15;98673.56;;;22.20;63.90
18697;BME280;22617;43.690;27.956;2023-05-24T12:26:21;98672.03;;;21.67;66.01
18697;BME280;22617;43.690;27.956;2023-05-24T12:31:25;98668.66;;;21.48;65.32
18697;BME280;22617;43.690;27.956;2023-05-24T12:36:29;98660.84;;;21.45;65.76
18697;BME280;22617;43.690;27.956;2023-05-24T12:41:34;98663.00;;;21.54;65.29
18697;BME280;22617;43.690;27.956;2023-05-24T12:46:38;98664.41;;;21.61;65.20
18697;BME280;22617;43.690;27.956;2023-05-24T12:51:42;98664.53;;;21.58;68.04
18697;BME280;22617;43.690;27.956;2023-05-24T12:56:50;98653.34;;;21.53;69.79
18697;BME280;22617;43.690;27.956;2023-05-24T13:01:57;98656.75;;;21.55;69.36
18697;BME280;22617;43.690;27.956;2023-05-24T13:07:01;98639.72;;;21.59;69.60
18697;BME280;22617;43.690;27.956;2023-05-24T13:12:08;98645.94;;;21.91;68.80
18697;BME280;22617;43.690;27.956;2023-05-24T13:17:12;98642.88;;;22.76;67.32
18697;BME280;22617;43.690;27.956;2023-05-24T13:22:17;98648.84;;;23.23;64.88
18697;BME280;22617;43.690;27.956;2023-05-24T13:27:22;98661.00;;;23.98;62.86
18697;BME280;22617;43.690;27.956;2023-05-24T13:32:26;98657.97;;;24.18;60.26
18697;BME280;22617;43.690;27.956;2023-05-24T13:37:30;98646.41;;;23.34;61.21
18697;BME280;22617;43.690;27.956;2023-05-24T13:42:35;98651.44;;;22.81;65.63
18697;BME280;22617;43.690;27.956;2023-05-24T13:47:39;98641.28;;;22.42;67.46
18697;BME280;22617;43.690;27.956;2023-05-24T13:52:43;98641.50;;;22.23;67.56
18697;BME280;22617;43.690;27.956;2023-05-24T13:57:48;98634.31;;;21.94;68.82
18697;BME280;22617;43.690;27.956;2023-05-24T14:02:53;98629.72;;;21.64;70.02
18697;BME280;22617;43.690;27.956;2023-05-24T14:07:58;98629.13;;;21.59;71.38
18697;BME280;22617;43.690;27.956;2023-05-24T14:13:09;98629.16;;;21.75;70.99
18697;BME280;22617;43.690;27.956;2023-05-24T14:18:32;98620.66;;;21.68;71.38
18697;BME280;22617;43.690;27.956;2023-05-24T14:23:37;98619.47;;;21.90;69.86
18697;BME280;22617;43.690;27.956;2023-05-24T14:28:42;98618.81;;;22.02;70.10
18697;BME280;22617;43.690;27.956;2023-05-24T14:33:45;98621.94;;;21.93;68.96
18697;BME280;22617;43.690;27.956;2023-05-24T14:38:49;98618.78;;;21.70;70.60
18697;BME280;22617;43.690;27.956;2023-05-24T14:43:55;98611.00;;;21.83;70.81
18697;BME280;22617;43.690;27.956;2023-05-24T14:48:58;98613.38;;;21.88;69.83
18697;BME280;22617;43.690;27.956;2023-05-24T14:54:03;98617.38;;;21.96;69.16
18697;BME280;22617;43.690;27.956;2023-05-24T14:59:08;98624.13;;;22.17;68.25
18697;BME280;22617;43.690;27.956;2023-05-24T15:04:12;98623.84;;;21.91;69.31
18697;BME280;22617;43.690;27.956;2023-05-24T15:09:15;98622.97;;;21.74;69.42
18697;BME280;22617;43.690;27.956;2023-05-24T15:14:20;98616.66;;;21.93;68.08
18697;BME280;22617;43.690;27.956;2023-05-24T15:19:24;98613.16;;;22.24;67.30
18697;BME280;22617;43.690;27.956;2023-05-24T15:24:28;98608.38;;;22.14;67.03
18697;BME280;22617;43.690;27.956;2023-05-24T15:29:32;98607.84;;;22.24;64.09
18697;BME280;22617;43.690;27.956;2023-05-24T15:34:36;98611.94;;;22.29;65.35
18697;BME280;22617;43.690;27.956;2023-05-24T15:39:40;98602.88;;;22.17;65.75
18697;BME280;22617;43.690;27.956;2023-05-24T15:44:45;98601.53;;;22.10;65.49
18697;BME280;22617;43.690;27.956;2023-05-24T15:49:48;98610.13;;;21.83;67.12
18697;BME280;22617;43.690;27.956;2023-05-24T15:54:52;98616.22;;;21.69;67.45
18697;BME280;22617;43.690;27.956;2023-05-24T15:59:57;98615.09;;;21.57;66.79
18697;BME280;22617;43.690;27.956;2023-05-24T16:05:02;98621.59;;;21.52;66.86
18697;BME280;22617;43.690;27.956;2023-05-24T16:10:06;98624.50;;;21.47;67.65
18697;BME280;22617;43.690;27.956;2023-05-24T16:15:12;98616.94;;;21.40;68.92
18697;BME280;22617;43.690;27.956;2023-05-24T16:20:15;98625.31;;;21.32;68.33
18697;BME280;22617;43.690;27.956;2023-05-24T16:25:19;98623.44;;;21.34;68.01
18697;BME280;22617;43.690;27.956;2023-05-24T16:30:24;98628.91;;;21.31;68.36
18697;BME280;22617;43.690;27.956;2023-05-24T16:35:28;98629.06;;;21.28;68.62
18697;BME280;22617;43.690;27.956;2023-05-24T16:40:32;98634.06;;;21.17;69.57
18697;BME280;22617;43.690;27.956;2023-05-24T16:45:37;98625.97;;;21.03;70.33
18697;BME280;22617;43.690;27.956;2023-05-24T16:50:40;98631.50;;;20.98;71.31
18697;BME280;22617;43.690;27.956;2023-05-24T16:55:44;98635.25;;;20.77;72.60
18697;BME280;22617;43.690;27.956;2023-05-24T17:00:53;98635.50;;;20.55;71.28
18697;BME280;22617;43.690;27.956;2023-05-24T17:05:58;98642.63;;;20.36;70.43
18697;BME280;22617;43.690;27.956;2023-05-24T17:11:05;98650.19;;;20.25;69.16
18697;BME280;22617;43.690;27.956;2023-05-24T17:16:10;98650.94;;;20.10;68.02
18697;BME280;22617;43.690;27.956;2023-05-24T17:21:15;98653.91;;;20.03;67.80
18697;BME280;22617;43.690;27.956;2023-05-24T17:26:18;98658.41;;;19.83;67.78
18697;BME280;22617;43.690;27.956;2023-05-24T17:31:23;98661.75;;;19.68;66.88
18697;BME280;22617;43.690;27.956;2023-05-24T17:36:27;98650.97;;;19.53;66.69
18697;BME280;22617;43.690;27.956;2023-05-24T17:41:34;98640.91;;;19.41;67.53
18697;BME280;22617;43.690;27.956;2023-05-24T17:46:39;98653.41;;;19.38;67.96
18697;BME280;22617;43.690;27.956;2023-05-24T17:51:43;98660.16;;;19.25;68.19
18697;BME280;22617;43.690;27.956;2023-05-24T17:56:47;98664.28;;;19.11;68.91
18697;BME280;22617;43.690;27.956;2023-05-24T18:01:52;98667.28;;;19.04;69.39
18697;BME280;22617;43.690;27.956;2023-05-24T18:06:55;98676.44;;;18.95;69.81
18697;BME280;22617;43.690;27.956;2023-05-24T18:11:59;98682.00;;;18.89;70.02
18697;BME280;22617;43.690;27.956;2023-05-24T18:17:04;98697.25;;;18.39;70.62
18697;BME280;22617;43.690;27.956;2023-05-24T18:22:07;98696.22;;;18.21;71.96
18697;BME280;22617;43.690;27.956;2023-05-24T18:27:11;98708.72;;;18.16;72.39
18697;BME280;22617;43.690;27.956;2023-05-24T18:32:16;98723.53;;;17.97;71.66
18697;BME280;22617;43.690;27.956;2023-05-24T18:37:20;98711.09;;;17.77;72.98
18697;BME280;22617;43.690;27.956;2023-05-24T18:42:24;98733.50;;;17.66;73.72
18697;BME280;22617;43.690;27.956;2023-05-24T18:47:29;98739.75;;;17.63;73.68
18697;BME280;22617;43.690;27.956;2023-05-24T18:52:33;98741.53;;;17.63;73.54
18697;BME280;22617;43.690;27.956;2023-05-24T18:57:37;98739.59;;;17.43;73.27
18697;BME280;22617;43.690;27.956;2023-05-24T19:02:43;98737.34;;;17.56;72.94
18697;BME280;22617;43.690;27.956;2023-05-24T19:07:48;98736.94;;;17.43;73.22
18697;BME280;22617;43.690;27.956;2023-05-24T19:12:52;98734.47;;;17.38;73.10
18697;BME280;22617;43.690;27.956;2023-05-24T19:17:56;98742.13;;;17.21;73.19
18697;BME280;22617;43.690;27.956;2023-05-24T19:23:01;98751.81;;;17.21;73.76
18697;BME280;22617;43.690;27.956;2023-05-24T19:28:04;98741.81;;;17.30;73.68
18697;BME280;22617;43.690;27.956;2023-05-24T19:33:09;98740.28;;;17.23;73.46
18697;BME280;22617;43.690;27.956;2023-05-24T19:38:13;98741.63;;;17.10;73.33
18697;BME280;22617;43.690;27.956;2023-05-24T19:43:19;98742.66;;;17.06;74.01
18697;BME280;22617;43.690;27.956;2023-05-24T19:48:24;98738.56;;;16.97;74.00
18697;BME280;22617;43.690;27.956;2023-05-24T19:53:28;98742.09;;;16.70;74.07
18697;BME280;22617;43.690;27.956;2023-05-24T19:58:31;98751.31;;;16.55;74.51
18697;BME280;22617;43.690;27.956;2023-05-24T20:03:37;98745.16;;;16.56;74.89
18697;BME280;22617;43.690;27.956;2023-05-24T20:08:40;98751.19;;;16.32;74.39
18697;BME280;22617;43.690;27.956;2023-05-24T20:13:44;98753.66;;;16.37;75.33
18697;BME280;22617;43.690;27.956;2023-05-24T20:18:49;98748.75;;;16.26;75.49
18697;BME280;22617;43.690;27.956;2023-05-24T20:23:53;98754.69;;;16.33;75.21
18697;BME280;22617;43.690;27.956;2023-05-24T20:29:00;98754.78;;;16.30;75.50
18697;BME280;22617;43.690;27.956;2023-05-24T20:34:05;98748.66;;;16.29;75.58
18697;BME280;22617;43.690;27.956;2023-05-24T20:39:08;98751.47;;;16.23;75.32
18697;BME280;22617;43.690;27.956;2023-05-24T20:44:12;98741.34;;;16.11;75.34
18697;BME280;22617;43.690;27.956;2023-05-24T20:49:17;98745.28;;;15.96;75.14
18697;BME280;22617;43.690;27.956;2023-05-24T20:54:21;98745.38;;;15.93;75.39
18697;BME280;22617;43.690;27.956;2023-05-24T20:59:25;98742.38;;;15.76;74.89
18697;BME280;22617;43.690;27.956;2023-05-24T21:04:30;98744.59;;;15.59;75.71
18697;BME280;22617;43.690;27.956;2023-05-24T21:09:33;98740.63;;;15.77;75.83
18697;BME280;22617;43.690;27.956;2023-05-24T21:14:37;98735.22;;;15.81;75.61
18697;BME280;22617;43.690;27.956;2023-05-24T21:19:42;98746.78;;;15.43;76.05
18697;BME280;22617;43.690;27.956;2023-05-24T21:24:46;98748.31;;;15.50;76.00
18697;BME280;22617;43.690;27.956;2023-05-24T21:29:50;98751.56;;;15.61;75.79
18697;BME280;22617;43.690;27.956;2023-05-24T21:34:55;98753.31;;;15.61;75.40
18697;BME280;22617;43.690;27.956;2023-05-24T21:39:58;98747.09;;;15.63;75.42
18697;BME280;22617;43.690;27.956;2023-05-24T21:45:05;98743.84;;;15.55;75.14
18697;BME280;22617;43.690;27.956;2023-05-24T21:50:10;98736.81;;;15.56;75.16
18697;BME280;22617;43.690;27.956;2023-05-24T21:55:14;98744.09;;;15.45;75.70
18697;BME280;22617;43.690;27.956;2023-05-24T22:00:18;98739.81;;;15.42;75.36
18697;BME280;22617;43.690;27.956;2023-05-24T22:05:24;98742.47;;;15.41;75.75
18697;BME280;22617;43.690;27.956;2023-05-24T22:10:29;98743.47;;;15.37;75.88
18697;BME280;22617;43.690;27.956;2023-05-24T22:15:33;98738.97;;;15.40;75.72
18697;BME280;22617;43.690;27.956;2023-05-24T22:20:37;98740.81;;;15.38;75.26
18697;BME280;22617;43.690;27.956;2023-05-24T22:25:41;98749.69;;;15.34;75.26
18697;BME280;22617;43.690;27.956;2023-05-24T22:30:46;98742.44;;;15.42;75.41
18697;BME280;22617;43.690;27.956;2023-05-24T22:35:51;98740.88;;;15.35;75.03
18697;BME280;22617;43.690;27.956;2023-05-24T22:40:54;98751.81;;;15.20;76.11
18697;BME280;22617;43.690;27.956;2023-05-24T22:45:58;98743.47;;;15.04;75.98
18697;BME280;22617;43.690;27.956;2023-05-24T22:51:03;98735.84;;;14.95;76.18
18697;BME280;22617;43.690;27.956;2023-05-24T22:56:07;98737.66;;;14.92;76.61
18697;BME280;22617;43.690;27.956;2023-05-24T23:01:11;98732.81;;;14.76;77.45
18697;BME280;22617;43.690;27.956;2023-05-24T23:06:16;98742.34;;;14.80;77.20
18697;BME280;22617;43.690;27.956;2023-05-24T23:11:22;98737.00;;;14.83;77.50
18697;BME280;22617;43.690;27.956;2023-05-24T23:16:27;98738.63;;;14.88;77.35
18697;BME280;22617;43.690;27.956;2023-05-24T23:21:34;98739.97;;;14.70;76.59
18697;BME280;22617;43.690;27.956;2023-05-24T23:26:38;98743.31;;;14.39;78.18
18697;BME280;22617;43.690;27.956;2023-05-24T23:31:41;98743.81;;;14.57;78.01
18697;BME280;22617;43.690;27.956;2023-05-24T23:36:47;98741.97;;;14.60;76.96
18697;BME280;22617;43.690;27.956;2023-05-24T23:41:51;98744.56;;;14.62;77.45
18697;BME280;22617;43.690;27.956;2023-05-24T23:46:55;98739.25;;;14.63;76.66
18697;BME280;22617;43.690;27.956;2023-05-24T23:52:00;98728.81;;;14.62;76.67
18697;BME280;22617;43.690;27.956;2023-05-24T23:57:04;98725.28;;;14.63;77.24
